Time;durP1;ratioP1;P1;durP2;ratioP2;P2;SDS_P1;SDS_P2;PMS_P1;PMS_P2;Temp;Humidity;BMP_temperature;BMP_pressure;BME280_temperature;BME280_humidity;BME280_pressure;Samples;Min_cycle;Max_cycle;Signal;HPM_P1;HPM_P2
2021/10/31 00:02:23;;;;;;;13.40;10.10;;;;;;;13.61;74.35;99381.97;5062942;28;20564;-74
2021/10/31 00:04:49;;;;;;;12.07;9.20;;;;;;;13.73;73.94;99385.88;5069581;28;20461;-72
2021/10/31 00:07:16;;;;;;;11.57;10.00;;;;;;;13.53;74.13;99385.56;5076177;28;20544;-74
2021/10/31 00:09:43;;;;;;;11.30;10.10;;;;;;;13.90;73.10;99391.94;5071405;28;20449;-74
2021/10/31 00:12:09;;;;;;;11.63;10.30;;;;;;;14.01;72.87;99396.88;5079724;28;20509;-75
2021/10/31 00:14:36;;;;;;;12.30;11.00;;;;;;;13.88;73.41;99400.19;5076169;28;20880;-74
2021/10/31 00:17:04;;;;;;;14.97;10.20;;;;;;;13.79;73.67;99390.53;5078872;28;21019;-72
2021/10/31 00:19:32;;;;;;;13.43;10.70;;;;;;;14.03;73.06;99402.06;5073652;28;20446;-74
2021/10/31 00:21:59;;;;;;;12.50;11.00;;;;;;;13.90;72.89;99402.69;5077962;28;20546;-74
2021/10/31 00:24:26;;;;;;;12.70;11.10;;;;;;;13.75;74.00;99405.38;5068042;28;20499;-75
2021/10/31 00:26:53;;;;;;;14.10;12.27;;;;;;;13.86;73.24;99406.75;5065548;28;20487;-75
2021/10/31 00:29:19;;;;;;;12.00;10.70;;;;;;;13.78;73.85;99404.97;5076442;28;20447;-74
2021/10/31 00:31:46;;;;;;;12.03;10.83;;;;;;;13.75;74.09;99405.38;5073977;28;20544;-74
2021/10/31 00:34:13;;;;;;;12.50;10.90;;;;;;;13.61;74.59;99412.38;5072846;28;20496;-74
2021/10/31 00:36:41;;;;;;;12.23;10.60;;;;;;;13.86;73.76;99404.91;5070644;28;21032;-74
2021/10/31 00:39:08;;;;;;;14.33;12.80;;;;;;;13.61;74.44;99398.06;5060869;28;20520;-74
2021/10/31 00:41:34;;;;;;;13.97;12.33;;;;;;;13.65;74.45;99402.09;5060675;28;20500;-75
2021/10/31 00:44:01;;;;;;;13.40;12.00;;;;;;;13.69;74.60;99406.91;5060807;28;20441;-74
2021/10/31 00:46:28;;;;;;;13.00;11.50;;;;;;;13.62;74.54;99394.38;5059754;28;20508;-74
2021/10/31 00:48:55;;;;;;;13.60;11.73;;;;;;;13.46;75.16;99404.25;5061809;28;20489;-74
2021/10/31 00:51:22;;;;;;;13.70;12.03;;;;;;;13.50;75.21;99407.41;5072557;28;20479;-74
2021/10/31 00:53:50;;;;;;;15.60;11.63;;;;;;;13.40;75.46;99407.63;5070213;28;20460;-74
2021/10/31 00:56:17;;;;;;;15.93;12.20;;;;;;;13.14;76.86;99414.19;5063643;28;20477;-73
2021/10/31 00:58:43;;;;;;;13.30;11.90;;;;;;;13.33;76.01;99423.66;5061773;28;20464;-75
2021/10/31 01:01:11;;;;;;;13.10;11.80;;;;;;;13.27;76.34;99410.06;5073854;28;20497;-74
2021/10/31 01:03:38;;;;;;;13.80;12.03;;;;;;;13.29;76.18;99413.41;5061668;28;20492;-75
2021/10/31 01:06:42;;;;;;;13.30;12.00;;;;;;;13.18;76.68;99426.22;5066711;28;21036;-74
2021/10/31 01:09:17;;;;;;;14.47;12.40;;;;;;;13.05;76.71;99425.16;5080399;28;20444;-74
2021/10/31 01:11:49;;;;;;;12.83;11.43;;;;;;;13.22;76.99;99429.38;5078805;28;20571;-73
2021/10/31 01:14:43;;;;;;;12.97;11.63;;;;;;;13.22;76.84;99431.25;5084016;28;20645;-72
2021/10/31 01:17:26;;;;;;;14.20;11.77;;;;;;;13.10;77.29;99431.63;5077640;28;20473;-73
2021/10/31 01:20:06;;;;;;;14.23;12.73;;;;;;;13.16;77.02;99444.38;5081205;28;20534;-73
2021/10/31 01:22:47;;;;;;;13.60;12.20;;;;;;;13.11;76.98;99435.19;5071772;28;20940;-72
2021/10/31 01:25:28;;;;;;;13.60;12.20;;;;;;;13.11;77.68;99437.88;5077830;28;20800;-72
2021/10/31 01:28:04;;;;;;;14.30;11.90;;;;;;;13.04;77.79;99428.81;5073651;28;20555;-73
2021/10/31 01:30:37;;;;;;;16.03;12.90;;;;;;;12.87;78.66;99434.28;5077173;28;20475;-77
2021/10/31 01:33:09;;;;;;;14.80;12.00;;;;;;;13.00;78.37;99439.06;5064322;28;20502;-77
2021/10/31 01:35:50;;;;;;;15.40;13.60;;;;;;;13.05;78.22;99434.00;5063497;28;20497;-77
2021/10/31 01:38:25;;;;;;;14.53;12.90;;;;;;;13.24;77.44;99434.59;5063755;28;20425;-77
2021/10/31 01:40:59;;;;;;;13.87;12.47;;;;;;;13.22;77.57;99433.94;5064707;28;20559;-77
2021/10/31 01:43:31;;;;;;;15.37;13.60;;;;;;;13.17;77.76;99437.97;5062610;28;20492;-75
2021/10/31 01:46:03;;;;;;;14.80;11.90;;;;;;;13.27;77.41;99443.13;5071282;28;20476;-75
2021/10/31 01:48:35;;;;;;;13.80;12.07;;;;;;;13.29;77.47;99441.09;5084009;28;20479;-77
2021/10/31 01:51:06;;;;;;;15.03;12.37;;;;;;;13.35;77.19;99440.41;5075610;28;20482;-75
2021/10/31 01:53:36;;;;;;;13.07;11.77;;;;;;;13.30;77.51;99450.81;5064915;28;20461;-74
2021/10/31 01:56:07;;;;;;;12.50;11.23;;;;;;;13.33;77.06;99452.34;5078619;28;21099;-74
2021/10/31 01:58:38;;;;;;;13.47;11.73;;;;;;;13.24;77.37;99453.38;5081817;28;20480;-74
2021/10/31 02:01:06;;;;;;;13.70;12.00;;;;;;;13.23;77.22;99455.22;5064705;28;21004;-75
2021/10/31 02:03:34;;;;;;;14.03;11.93;;;;;;;13.28;77.58;99465.41;5063037;28;20520;-74
2021/10/31 02:06:01;;;;;;;14.03;12.53;;;;;;;13.43;77.10;99462.84;5062482;28;20971;-75
2021/10/31 02:08:29;;;;;;;14.63;12.30;;;;;;;13.37;76.75;99465.22;5066992;28;20552;-74
2021/10/31 02:10:57;;;;;;;12.53;11.23;;;;;;;13.33;76.99;99466.63;5082735;28;20527;-75
2021/10/31 02:13:27;;;;;;;13.20;11.67;;;;;;;13.44;76.83;99461.84;5075052;28;20677;-75
2021/10/31 02:15:54;;;;;;;13.63;11.97;;;;;;;13.40;76.75;99458.66;5062821;28;20539;-74
2021/10/31 02:18:23;;;;;;;13.30;11.90;;;;;;;13.21;77.41;99464.47;5080660;28;20475;-72
2021/10/31 02:20:52;;;;;;;14.50;11.87;;;;;;;13.26;77.29;99464.75;5076992;28;20473;-73
2021/10/31 02:23:20;;;;;;;11.70;10.57;;;;;;;13.14;77.69;99458.97;5069963;28;20454;-75
2021/10/31 02:25:48;;;;;;;13.23;11.17;;;;;;;13.24;77.54;99469.47;5062278;28;20513;-75
2021/10/31 02:28:15;;;;;;;13.87;11.33;;;;;;;13.24;77.22;99461.44;5074764;28;20559;-72
2021/10/31 02:30:42;;;;;;;14.43;10.87;;;;;;;13.20;77.51;99474.38;5070117;28;20496;-77
2021/10/31 02:33:08;;;;;;;13.10;11.70;;;;;;;13.23;77.23;99457.06;5063191;28;20480;-75
2021/10/31 02:35:35;;;;;;;13.87;12.47;;;;;;;13.10;77.71;99463.84;5062851;28;20508;-76
2021/10/31 02:38:02;;;;;;;13.10;11.80;;;;;;;13.10;77.81;99466.53;5064149;28;20473;-78
2021/10/31 02:40:35;;;;;;;13.27;11.97;;;;;;;13.24;77.02;99469.47;5071089;28;20535;-77
2021/10/31 02:43:01;;;;;;;14.60;11.73;;;;;;;13.05;77.87;99478.81;5070419;28;20471;-72
2021/10/31 02:45:28;;;;;;;12.63;11.33;;;;;;;13.08;77.61;99475.78;5062828;28;20500;-75
2021/10/31 02:47:57;;;;;;;15.27;13.37;;;;;;;12.91;78.34;99478.53;5062733;28;20496;-74
2021/10/31 02:50:26;;;;;;;13.93;12.37;;;;;;;12.99;78.08;99480.34;5072893;28;21008;-75
2021/10/31 02:53:03;;;;;;;14.03;12.53;;;;;;;12.92;78.13;99484.75;5070967;28;20500;-73
2021/10/31 02:55:38;;;;;;;13.30;11.60;;;;;;;12.99;77.86;99491.91;5079449;28;20474;-76
2021/10/31 02:58:07;;;;;;;14.57;12.53;;;;;;;12.77;77.82;99493.50;5069837;28;20878;-76
2021/10/31 03:00:37;;;;;;;15.70;12.70;;;;;;;12.97;77.65;99502.00;5068362;28;20557;-78
2021/10/31 03:03:05;;;;;;;15.83;11.73;;;;;;;12.94;77.27;99501.50;5062291;28;20516;-76
2021/10/31 03:05:31;;;;;;;13.50;11.63;;;;;;;12.88;77.58;99495.00;5062346;28;21233;-77
2021/10/31 03:07:58;;;;;;;13.07;11.67;;;;;;;12.87;77.50;99490.63;5063460;28;20509;-76
2021/10/31 03:10:25;;;;;;;12.30;11.07;;;;;;;12.90;77.23;99489.47;5061756;28;20457;-76
2021/10/31 03:12:53;;;;;;;12.20;10.90;;;;;;;12.88;77.16;99496.81;5075526;28;20469;-77
2021/10/31 03:15:20;;;;;;;12.53;11.13;;;;;;;12.73;77.81;99497.56;5073785;28;20475;-76
2021/10/31 03:17:47;;;;;;;11.83;10.27;;;;;;;12.71;78.22;99488.03;5082449;28;20448;-75
2021/10/31 03:20:14;;;;;;;12.30;10.77;;;;;;;12.60;78.64;99492.75;5081469;28;20481;-73
2021/10/31 03:22:40;;;;;;;13.90;11.93;;;;;;;12.70;78.19;99497.91;5079021;28;20533;-72
2021/10/31 03:25:08;;;;;;;13.50;11.27;;;;;;;12.71;78.04;99496.06;5062495;28;20499;-73
2021/10/31 03:27:35;;;;;;;15.40;11.10;;;;;;;12.74;78.03;99501.94;5067271;28;20552;-73
2021/10/31 03:30:04;;;;;;;12.27;9.87;;;;;;;12.79;77.75;99498.69;5080726;28;20444;-72
2021/10/31 03:32:30;;;;;;;16.30;10.23;;;;;;;12.72;78.22;99503.09;5080162;28;20484;-72
2021/10/31 03:34:57;;;;;;;12.27;10.20;;;;;;;12.84;77.44;99507.06;5081288;28;20598;-74
2021/10/31 03:37:24;;;;;;;13.27;10.70;;;;;;;12.84;77.65;99515.13;5063592;28;20487;-74
2021/10/31 03:39:50;;;;;;;13.83;11.03;;;;;;;12.87;77.40;99513.94;5061714;28;20877;-74
2021/10/31 03:42:17;;;;;;;12.03;10.83;;;;;;;12.70;77.93;99511.31;5070550;28;20496;-73
2021/10/31 03:44:49;;;;;;;13.60;12.20;;;;;;;12.70;78.33;99518.53;5069376;28;20479;-71
2021/10/31 03:47:18;;;;;;;13.23;11.33;;;;;;;12.66;78.26;99511.84;5074917;28;20487;-74
2021/10/31 03:49:44;;;;;;;12.63;11.27;;;;;;;12.59;78.52;99507.16;5068398;28;20437;-73
2021/10/31 03:52:12;;;;;;;14.67;12.63;;;;;;;12.49;78.84;99509.19;5066621;28;20567;-75
2021/10/31 03:54:39;;;;;;;14.30;11.27;;;;;;;12.40;78.94;99515.59;5079105;28;20455;-75
2021/10/31 03:57:06;;;;;;;14.83;12.60;;;;;;;12.29;79.52;99508.75;5060500;28;20492;-75
2021/10/31 03:59:33;;;;;;;14.90;12.30;;;;;;;12.24;79.58;99509.25;5077324;28;20475;-73
2021/10/31 04:02:00;;;;;;;16.00;12.17;;;;;;;12.10;80.08;99511.75;5062396;28;20481;-75
2021/10/31 04:04:28;;;;;;;14.13;12.63;;;;;;;12.05;80.46;99504.25;5070775;28;20551;-74
2021/10/31 04:06:54;;;;;;;17.20;14.10;;;;;;;12.09;80.45;99510.09;5080823;28;20483;-74
2021/10/31 04:09:21;;;;;;;16.20;13.40;;;;;;;12.02;80.23;99499.22;5077427;28;20543;-75
2021/10/31 04:11:47;;;;;;;17.40;14.10;;;;;;;12.03;80.46;99507.09;5069686;28;20508;-73
2021/10/31 04:14:14;;;;;;;16.53;13.43;;;;;;;11.89;79.95;99505.06;5073080;28;20472;-74
2021/10/31 04:16:41;;;;;;;17.67;13.90;;;;;;;11.71;80.21;99494.50;5080403;28;20472;-72
2021/10/31 04:19:08;;;;;;;14.80;12.73;;;;;;;11.63;80.92;99500.69;5066214;28;20457;-73
2021/10/31 04:21:36;;;;;;;16.23;13.93;;;;;;;11.60;81.24;99498.34;5062366;28;20518;-73
2021/10/31 04:24:03;;;;;;;16.53;13.93;;;;;;;11.68;81.08;99498.34;5075379;28;20839;-74
2021/10/31 04:26:30;;;;;;;17.70;15.47;;;;;;;11.51;81.01;99504.69;5079016;28;20515;-75
2021/10/31 04:28:57;;;;;;;20.50;17.10;;;;;;;11.42;82.39;99514.53;5073798;28;20487;-75
2021/10/31 04:31:24;;;;;;;19.13;14.73;;;;;;;11.35;83.00;99513.50;5062383;28;20528;-76
2021/10/31 04:33:50;;;;;;;26.27;16.73;;;;;;;11.34;83.03;99508.34;5073543;28;20444;-75
2021/10/31 04:36:18;;;;;;;19.23;16.13;;;;;;;11.43;82.82;99508.16;5076948;28;20512;-74
2021/10/31 04:38:52;;;;;;;17.40;14.77;;;;;;;11.50;82.44;99509.19;5079332;28;20433;-75
2021/10/31 04:41:18;;;;;;;19.40;16.20;;;;;;;11.63;82.32;99505.19;5060739;28;20480;-75
2021/10/31 04:43:45;;;;;;;22.80;16.63;;;;;;;11.54;82.12;99512.38;5077496;28;20479;-75
2021/10/31 04:46:12;;;;;;;20.97;16.87;;;;;;;11.52;82.45;99511.69;5081542;28;20575;-73
2021/10/31 04:48:39;;;;;;;20.20;15.77;;;;;;;11.54;82.30;99500.84;5084799;28;20535;-73
2021/10/31 04:51:05;;;;;;;19.03;15.67;;;;;;;11.53;82.63;99512.53;5079396;28;20508;-73
2021/10/31 04:53:32;;;;;;;20.50;14.50;;;;;;;11.54;81.83;99508.88;5080239;28;20436;-73
2021/10/31 04:56:00;;;;;;;20.40;15.43;;;;;;;11.43;81.77;99513.53;5083334;28;20478;-72
2021/10/31 04:58:27;;;;;;;17.27;14.67;;;;;;;11.35;81.67;99502.78;5082069;28;21031;-72
2021/10/31 05:00:54;;;;;;;19.60;15.30;;;;;;;11.35;82.51;99499.28;5075584;28;20476;-76
2021/10/31 05:03:21;;;;;;;17.70;14.80;;;;;;;11.33;82.36;99506.66;5083965;28;20991;-76
2021/10/31 05:05:47;;;;;;;21.60;16.97;;;;;;;11.22;82.68;99507.81;5075291;28;20472;-77
2021/10/31 05:08:14;;;;;;;20.53;16.47;;;;;;;11.22;83.13;99505.13;5071825;28;20567;-76
2021/10/31 05:10:41;;;;;;;20.60;16.70;;;;;;;11.18;82.94;99507.28;5082612;28;20547;-75
2021/10/31 05:13:09;;;;;;;21.80;15.17;;;;;;;11.26;82.36;99512.66;5063463;28;20480;-75
2021/10/31 05:15:35;;;;;;;19.10;15.43;;;;;;;11.24;82.10;99501.28;5063506;28;20536;-77
2021/10/31 05:18:02;;;;;;;19.50;16.50;;;;;;;11.20;82.69;99502.63;5066661;28;20492;-77
2021/10/31 05:20:29;;;;;;;20.80;17.60;;;;;;;11.10;83.79;99504.59;5071066;28;20485;-76
2021/10/31 05:22:56;;;;;;;19.73;16.10;;;;;;;11.24;83.39;99509.31;5072339;28;20513;-76
2021/10/31 05:25:22;;;;;;;20.57;16.00;;;;;;;11.33;82.85;99509.34;5079274;28;20479;-71
2021/10/31 05:27:49;;;;;;;17.93;14.60;;;;;;;11.27;82.27;99503.63;5066124;28;20548;-71
2021/10/31 05:30:17;;;;;;;21.07;17.30;;;;;;;11.27;82.44;99502.81;5072991;28;20465;-72
2021/10/31 05:32:46;;;;;;;26.53;16.50;;;;;;;11.29;82.58;99498.94;5064231;28;20429;-72
2021/10/31 05:35:12;;;;;;;21.87;17.30;;;;;;;11.33;82.59;99498.63;5067749;28;20539;-71
2021/10/31 05:37:42;;;;;;;23.00;18.30;;;;;;;11.35;83.00;99492.09;5075552;28;20589;-70
2021/10/31 05:40:11;;;;;;;22.93;17.50;;;;;;;11.38;83.02;99485.59;5063937;28;20436;-70
2021/10/31 05:42:38;;;;;;;21.27;16.47;;;;;;;11.40;82.89;99487.09;5069112;28;20461;-69
2021/10/31 05:45:07;;;;;;;23.43;17.60;;;;;;;11.41;82.74;99486.09;5076498;28;20468;-70
2021/10/31 05:47:36;;;;;;;26.10;16.77;;;;;;;11.39;82.76;99481.91;5079312;28;20460;-72
2021/10/31 05:50:04;;;;;;;24.17;18.73;;;;;;;11.37;82.31;99481.22;5080991;28;21011;-70
2021/10/31 05:52:31;;;;;;;26.13;19.00;;;;;;;11.32;82.43;99481.75;5067477;28;20805;-70
2021/10/31 05:54:57;;;;;;;26.03;19.30;;;;;;;11.28;82.59;99481.22;5082832;28;20484;-71
2021/10/31 05:57:24;;;;;;;22.43;18.20;;;;;;;11.26;82.94;99480.53;5077295;28;20819;-73
2021/10/31 05:59:50;;;;;;;27.20;18.70;;;;;;;11.26;82.72;99485.88;5072196;28;20508;-73
2021/10/31 06:02:17;;;;;;;24.37;18.37;;;;;;;11.30;82.89;99481.91;5080643;28;20495;-73
2021/10/31 06:04:46;;;;;;;24.83;19.43;;;;;;;11.31;82.75;99488.91;5063496;28;20567;-72
2021/10/31 06:07:13;;;;;;;22.30;17.60;;;;;;;11.31;82.89;99488.91;5069622;28;20480;-73
2021/10/31 06:09:40;;;;;;;23.10;18.40;;;;;;;11.32;82.81;99484.41;5082863;28;20503;-73
2021/10/31 06:12:08;;;;;;;26.07;19.63;;;;;;;11.32;82.73;99479.06;5069295;28;20563;-73
2021/10/31 06:14:36;;;;;;;22.47;16.77;;;;;;;11.37;83.17;99494.59;5068681;28;21115;-74
2021/10/31 06:17:03;;;;;;;24.13;19.83;;;;;;;11.36;83.09;99487.59;5063882;28;20568;-73
2021/10/31 06:19:31;;;;;;;24.63;18.17;;;;;;;11.36;82.87;99485.75;5064832;28;20477;-73
2021/10/31 06:21:59;;;;;;;26.60;19.17;;;;;;;11.33;83.01;99485.25;5080435;28;20503;-73
2021/10/31 06:24:25;;;;;;;26.77;18.53;;;;;;;11.38;83.06;99489.09;5063776;28;20449;-73
2021/10/31 06:26:52;;;;;;;28.17;19.30;;;;;;;11.37;83.08;99483.91;5062149;28;20469;-72
2021/10/31 06:29:19;;;;;;;25.20;18.60;;;;;;;11.42;82.89;99492.28;5077053;28;20547;-72
2021/10/31 06:31:45;;;;;;;21.93;17.23;;;;;;;11.42;83.11;99489.59;5079966;28;20543;-72
2021/10/31 06:34:12;;;;;;;23.80;18.60;;;;;;;11.48;83.28;99481.75;5063132;28;20467;-72
2021/10/31 06:36:39;;;;;;;26.33;19.37;;;;;;;11.48;83.35;99487.09;5081021;28;20533;-72
2021/10/31 06:39:07;;;;;;;24.63;18.40;;;;;;;11.59;83.13;99483.25;5083314;28;20492;-72
2021/10/31 06:41:33;;;;;;;28.97;20.27;;;;;;;11.61;83.04;99493.81;5065096;28;20511;-73
2021/10/31 06:44:00;;;;;;;31.10;20.10;;;;;;;11.66;82.93;99492.31;5062420;28;20487;-72
2021/10/31 06:46:27;;;;;;;24.57;19.10;;;;;;;11.72;82.75;99498.00;5062198;28;20477;-72
2021/10/31 06:48:54;;;;;;;24.47;17.83;;;;;;;11.77;82.59;99491.16;5063408;28;20525;-73
2021/10/31 06:51:20;;;;;;;24.03;18.20;;;;;;;11.75;82.66;99495.84;5063103;28;20588;-74
2021/10/31 06:53:48;;;;;;;27.90;19.13;;;;;;;11.84;82.57;99481.44;5072146;28;20480;-72
2021/10/31 06:56:16;;;;;;;25.87;17.50;;;;;;;11.91;82.56;99484.31;5062823;28;20476;-73
2021/10/31 06:58:43;;;;;;;27.33;19.23;;;;;;;11.93;82.18;99487.66;5066237;28;20462;-73
2021/10/31 07:01:10;;;;;;;24.03;18.10;;;;;;;11.94;82.13;99485.81;5080861;28;20496;-74
2021/10/31 07:03:37;;;;;;;22.70;16.77;;;;;;;11.96;81.86;99481.13;5077775;28;20515;-74
2021/10/31 07:06:04;;;;;;;25.30;18.43;;;;;;;11.83;81.93;99478.94;5097631;28;20491;-74
2021/10/31 07:08:31;;;;;;;22.83;17.20;;;;;;;11.92;81.85;99482.47;5084651;28;20508;-74
2021/10/31 07:10:58;;;;;;;24.20;17.50;;;;;;;11.83;82.37;99485.13;5092880;28;20475;-74
2021/10/31 07:13:26;;;;;;;24.47;17.50;;;;;;;11.87;82.21;99477.59;5080542;28;20528;-74
2021/10/31 07:15:52;;;;;;;23.10;17.23;;;;;;;11.96;81.65;99478.44;5097132;28;20475;-74
2021/10/31 07:18:19;;;;;;;22.63;17.13;;;;;;;12.00;81.58;99482.47;5101787;28;20523;-74
2021/10/31 07:20:46;;;;;;;23.80;16.00;;;;;;;12.08;81.63;99486.97;5101129;28;20556;-74
2021/10/31 07:23:12;;;;;;;21.23;16.53;;;;;;;12.19;81.20;99482.13;5092033;28;20447;-74
2021/10/31 07:25:39;;;;;;;21.67;16.83;;;;;;;12.35;80.74;99483.09;5095106;28;20467;-74
2021/10/31 07:28:06;;;;;;;21.90;17.17;;;;;;;12.43;80.20;99483.91;5101530;28;20478;-74
2021/10/31 07:30:34;;;;;;;23.03;16.77;;;;;;;12.66;79.89;99476.97;5096913;28;20514;-75
2021/10/31 07:33:02;;;;;;;17.37;15.00;;;;;;;13.07;78.57;99483.00;5090626;28;20871;-74
2021/10/31 07:35:30;;;;;;;16.40;14.13;;;;;;;14.25;77.75;99470.19;5089303;28;20467;-75
2021/10/31 07:37:57;;;;;;;15.50;13.63;;;;;;;15.48;71.81;99471.38;5080168;28;20555;-71
2021/10/31 07:40:24;;;;;;;12.00;10.80;;;;;;;16.52;65.55;99467.28;5068574;28;20891;-72
2021/10/31 07:42:52;;;;;;;10.30;9.27;;;;;;;17.00;62.87;99463.81;5074735;28;20464;-73
2021/10/31 07:45:19;;;;;;;8.90;7.17;;;;;;;18.75;58.27;99456.41;5079130;28;20467;-74
2021/10/31 07:47:47;;;;;;;8.40;7.33;;;;;;;17.77;59.22;99465.22;5085983;28;20547;-73
2021/10/31 07:50:14;;;;;;;6.67;6.03;;;;;;;16.03;64.47;99452.84;5071439;28;20488;-73
2021/10/31 07:52:43;;;;;;;8.67;7.57;;;;;;;15.15;67.85;99454.88;5080659;28;20443;-73
2021/10/31 07:55:12;;;;;;;7.50;6.80;;;;;;;14.53;69.70;99446.22;5089522;28;20447;-74
2021/10/31 07:57:38;;;;;;;8.67;7.87;;;;;;;13.97;71.68;99448.47;5080532;28;20456;-74
2021/10/31 08:00:06;;;;;;;9.67;8.43;;;;;;;13.96;72.05;99452.16;5085875;28;20762;-73
2021/10/31 08:02:33;;;;;;;8.80;8.00;;;;;;;14.35;70.98;99443.06;5070013;28;20448;-74
2021/10/31 08:05:01;;;;;;;9.37;7.97;;;;;;;14.65;69.11;99433.13;5074117;28;21037;-74
2021/10/31 08:07:29;;;;;;;10.60;6.80;;;;;;;15.71;66.56;99441.56;5066208;28;20468;-75
2021/10/31 08:09:58;;;;;;;7.37;6.67;;;;;;;15.86;65.12;99433.41;5068790;28;20499;-75
2021/10/31 08:12:25;;;;;;;7.27;6.57;;;;;;;16.68;62.71;99437.28;5069266;28;20506;-75
2021/10/31 08:14:51;;;;;;;7.70;7.10;;;;;;;16.96;61.90;99436.38;5074851;28;20448;-78
2021/10/31 08:17:18;;;;;;;7.30;6.60;;;;;;;17.29;61.25;99447.28;5073117;28;21087;-74
2021/10/31 08:19:44;;;;;;;6.77;6.17;;;;;;;17.96;59.18;99441.13;5076982;28;20495;-76
2021/10/31 08:22:12;;;;;;;6.87;6.27;;;;;;;16.81;61.49;99435.66;5083123;28;20475;-75
2021/10/31 08:24:39;;;;;;;7.53;6.80;;;;;;;16.73;61.86;99420.44;5080193;28;20552;-74
2021/10/31 08:27:07;;;;;;;7.57;6.83;;;;;;;15.95;63.82;99413.38;5064503;28;20567;-74
2021/10/31 08:29:33;;;;;;;8.33;6.97;;;;;;;15.87;64.64;99408.13;5063022;28;20520;-75
2021/10/31 08:32:00;;;;;;;9.87;8.20;;;;;;;15.35;66.25;99406.63;5075416;28;20475;-75
2021/10/31 08:34:27;;;;;;;8.33;7.53;;;;;;;15.99;64.69;99401.16;5084177;28;20527;-75
2021/10/31 08:36:54;;;;;;;6.90;6.30;;;;;;;15.79;65.53;99398.31;5081386;28;20540;-74
2021/10/31 08:39:22;;;;;;;7.43;6.73;;;;;;;15.19;67.08;99388.84;5075103;28;20437;-75
2021/10/31 08:41:49;;;;;;;8.27;6.97;;;;;;;14.96;67.68;99392.53;5080126;28;20552;-75
2021/10/31 08:44:15;;;;;;;9.37;6.90;;;;;;;15.20;67.00;99394.03;5072570;28;20528;-75
2021/10/31 08:46:42;;;;;;;7.90;7.10;;;;;;;14.71;68.18;99396.59;5081184;28;20491;-75
2021/10/31 08:49:09;;;;;;;7.90;7.10;;;;;;;14.59;68.95;99398.94;5064506;28;20456;-75
2021/10/31 08:51:36;;;;;;;9.60;8.23;;;;;;;14.72;67.78;99401.81;5070696;28;20518;-75
2021/10/31 08:54:03;;;;;;;9.10;8.20;;;;;;;15.06;66.79;99398.44;5064202;28;20823;-75
2021/10/31 08:56:31;;;;;;;9.60;8.70;;;;;;;15.34;66.14;99395.00;5062710;28;20464;-76
2021/10/31 08:58:58;;;;;;;7.37;6.60;;;;;;;15.50;65.66;99393.06;5061811;28;20477;-75
2021/10/31 09:01:25;;;;;;;8.53;7.63;;;;;;;15.67;65.16;99386.38;5063966;28;20494;-75
2021/10/31 09:03:53;;;;;;;8.47;7.70;;;;;;;15.05;66.13;99391.41;5062985;28;21020;-74
2021/10/31 09:06:20;;;;;;;7.83;7.03;;;;;;;15.16;66.24;99387.38;5074618;28;20502;-74
2021/10/31 09:08:47;;;;;;;9.37;8.00;;;;;;;14.94;67.00;99391.06;5082786;28;20480;-74
2021/10/31 09:11:14;;;;;;;9.00;7.80;;;;;;;15.98;64.27;99387.88;5082708;28;20491;-75
2021/10/31 09:13:42;;;;;;;8.93;7.93;;;;;;;16.81;60.89;99400.56;5081771;28;20492;-75
2021/10/31 09:16:09;;;;;;;7.70;6.70;;;;;;;17.05;59.64;99388.41;5083032;28;20507;-75
2021/10/31 09:18:37;;;;;;;8.10;6.97;;;;;;;17.00;60.77;99389.03;5081707;28;20482;-75
2021/10/31 09:21:04;;;;;;;8.23;6.83;;;;;;;16.33;62.14;99386.00;5080810;28;20486;-74
2021/10/31 09:23:32;;;;;;;7.33;6.60;;;;;;;16.74;60.99;99393.25;5063088;28;20522;-75
2021/10/31 09:25:59;;;;;;;7.60;6.43;;;;;;;16.87;60.83;99386.28;5062470;28;20472;-75
2021/10/31 09:28:26;;;;;;;10.47;7.20;;;;;;;17.15;60.18;99380.75;5079266;28;20460;-74
2021/10/31 09:30:54;;;;;;;7.80;7.00;;;;;;;17.01;60.16;99373.66;5082312;28;21032;-75
2021/10/31 09:33:20;;;;;;;7.50;6.80;;;;;;;17.62;57.82;99376.22;5062461;28;20883;-75
2021/10/31 09:35:48;;;;;;;7.83;7.03;;;;;;;16.90;59.53;99375.91;5075028;28;20480;-75
2021/10/31 09:38:16;;;;;;;7.47;6.60;;;;;;;16.79;60.72;99373.78;5082858;28;20452;-74
2021/10/31 09:40:43;;;;;;;7.83;6.90;;;;;;;16.96;60.25;99368.88;5081635;28;20490;-75
2021/10/31 09:43:10;;;;;;;8.53;6.37;;;;;;;16.83;60.39;99363.41;5080398;28;20456;-75
2021/10/31 09:45:37;;;;;;;8.33;7.07;;;;;;;16.90;59.85;99367.81;5081627;28;20464;-75
2021/10/31 09:48:08;;;;;;;7.77;6.97;;;;;;;18.33;55.34;99361.19;5082719;28;20480;-75
2021/10/31 09:50:38;;;;;;;7.10;6.40;;;;;;;17.65;57.80;99350.63;5080943;28;20562;-75
2021/10/31 09:53:06;;;;;;;7.27;5.87;;;;;;;18.35;55.82;99344.69;5062997;28;20460;-75
2021/10/31 09:55:33;;;;;;;6.53;5.93;;;;;;;18.53;54.87;99355.66;5077310;28;21048;-72
2021/10/31 09:58:02;;;;;;;8.30;6.20;;;;;;;17.36;58.68;99343.78;5081602;28;20456;-72
2021/10/31 10:00:37;;;;;;;6.40;5.80;;;;;;;17.55;58.03;99344.81;5081438;28;20475;-72
2021/10/31 10:03:34;;;;;;;6.57;5.63;;;;;;;17.20;59.05;99353.94;5082771;28;20459;-73
2021/10/31 10:06:16;;;;;;;5.43;4.93;;;;;;;17.54;57.89;99329.66;5079852;28;20511;-72
2021/10/31 10:08:58;;;;;;;5.77;5.27;;;;;;;17.67;57.58;99333.19;5080634;28;20479;-72
2021/10/31 10:11:25;;;;;;;6.33;5.30;;;;;;;17.96;56.45;99322.16;5080151;28;20494;-75
2021/10/31 10:13:52;;;;;;;5.30;4.80;;;;;;;17.36;57.70;99309.50;5080246;28;20452;-76
2021/10/31 10:16:29;;;;;;;5.43;4.93;;;;;;;17.54;56.73;99311.56;5081170;28;20476;-76
2021/10/31 10:18:58;;;;;;;5.60;4.37;;;;;;;17.25;57.87;99315.50;5080209;28;20442;-75
2021/10/31 10:21:27;;;;;;;5.23;4.63;;;;;;;17.62;57.58;99295.13;5077578;28;21043;-72
2021/10/31 10:23:56;;;;;;;4.33;3.90;;;;;;;17.46;57.28;99296.41;5081749;28;20479;-75
2021/10/31 10:26:26;;;;;;;4.10;3.70;;;;;;;17.38;57.63;99291.22;5081440;28;20623;-74
2021/10/31 10:28:53;;;;;;;4.43;4.00;;;;;;;16.54;59.69;99287.97;5080466;28;20481;-75
2021/10/31 10:31:22;;;;;;;4.67;4.17;;;;;;;16.49;60.00;99294.97;5073512;28;20579;-75
2021/10/31 10:33:50;;;;;;;4.83;4.10;;;;;;;16.43;60.89;99291.22;5088599;28;20770;-75
2021/10/31 10:36:18;;;;;;;5.10;3.73;;;;;;;16.63;60.57;99280.50;5079300;28;20468;-75
2021/10/31 10:38:59;;;;;;;3.80;3.50;;;;;;;16.12;61.47;99283.63;5077957;28;20496;-75
2021/10/31 10:41:40;;;;;;;4.30;3.57;;;;;;;16.96;59.84;99281.63;5080127;28;20503;-75
2021/10/31 10:44:20;;;;;;;3.37;3.07;;;;;;;17.43;58.59;99267.09;5075927;28;20531;-74
2021/10/31 10:46:48;;;;;;;3.70;3.40;;;;;;;16.99;59.66;99255.03;5075791;28;20476;-74
2021/10/31 10:49:17;;;;;;;3.80;3.30;;;;;;;16.67;60.07;99268.25;5080243;28;20528;-75
2021/10/31 10:51:46;;;;;;;4.10;3.70;;;;;;;17.41;58.69;99261.06;5077488;28;20483;-74
2021/10/31 10:54:15;;;;;;;3.93;3.53;;;;;;;17.23;58.86;99252.78;5081133;28;20487;-75
2021/10/31 10:57:01;;;;;;;3.13;2.83;;;;;;;17.19;58.51;99252.34;5080770;28;20460;-74
2021/10/31 10:59:29;;;;;;;5.00;3.80;;;;;;;17.47;57.05;99235.09;5081906;28;20460;-75
2021/10/31 11:02:13;;;;;;;4.47;3.37;;;;;;;17.99;56.13;99237.88;5081393;28;20468;-75
2021/10/31 11:04:41;;;;;;;3.50;3.20;;;;;;;18.53;55.04;99242.00;5081665;28;20487;-75
2021/10/31 11:07:10;;;;;;;3.13;2.80;;;;;;;17.30;57.14;99237.38;5080864;28;20502;-75
2021/10/31 11:09:39;;;;;;;3.70;2.70;;;;;;;17.91;55.92;99246.22;5082108;28;20447;-75
2021/10/31 11:12:25;;;;;;;3.50;3.20;;;;;;;17.99;55.87;99236.00;5080090;28;20475;-74
2021/10/31 11:14:53;;;;;;;4.97;3.47;;;;;;;18.26;54.82;99227.75;5081443;28;20829;-75
2021/10/31 11:17:20;;;;;;;2.77;2.27;;;;;;;18.95;53.69;99228.00;5080719;28;20490;-75
2021/10/31 11:19:47;;;;;;;2.73;2.50;;;;;;;17.74;57.32;99225.06;5079752;28;20475;-75
2021/10/31 11:22:17;;;;;;;3.40;2.70;;;;;;;18.00;56.70;99226.88;5080718;28;20475;-75
2021/10/31 11:24:46;;;;;;;3.20;2.37;;;;;;;18.19;56.23;99224.25;5082115;28;20456;-75
2021/10/31 11:27:12;;;;;;;2.87;2.57;;;;;;;18.20;56.20;99204.28;5083362;28;20480;-76
2021/10/31 11:29:40;;;;;;;3.37;2.57;;;;;;;17.88;57.37;99206.94;5079973;28;20479;-76